Time;durP1;ratioP1;P1;durP2;ratioP2;P2;SDS_P1;SDS_P2;PMS_P1;PMS_P2;Temp;Humidity;BMP_temperature;BMP_pressure;BME280_temperature;BME280_humidity;BME280_pressure;Samples;Min_cycle;Max_cycle;Signal;HPM_P1;HPM_P2
2021/05/21 00:01:01;;;;;;;2.20;2.10;;;14.90;99.90;;;;;;5109999;28;20229;-82
2021/05/21 00:03:27;;;;;;;3.27;2.03;;;14.80;99.90;;;;;;5110273;28;20253;-83
2021/05/21 00:05:53;;;;;;;3.20;1.90;;;14.80;99.90;;;;;;5110057;28;20684;-83
2021/05/21 00:08:19;;;;;;;2.07;1.97;;;14.90;99.90;;;;;;5109835;28;20214;-82
2021/05/21 00:10:45;;;;;;;2.10;2.00;;;14.70;99.90;;;;;;5074362;28;20236;-83
2021/05/21 00:13:12;;;;;;;2.10;2.00;;;14.60;99.90;;;;;;5007269;28;20234;-84
2021/05/21 00:15:38;;;;;;;2.20;2.10;;;14.60;99.90;;;;;;5007003;28;20209;-84
2021/05/21 00:18:05;;;;;;;4.20;2.00;;;14.60;99.90;;;;;;5007037;28;20206;-82
2021/05/21 00:20:31;;;;;;;2.87;2.37;;;14.60;99.90;;;;;;5006749;28;20210;-83
2021/05/21 00:22:57;;;;;;;2.23;2.03;;;14.70;99.90;;;;;;5009219;28;20253;-83
2021/05/21 00:25:24;;;;;;;2.37;2.17;;;14.70;99.90;;;;;;5008886;28;20210;-83
2021/05/21 00:27:50;;;;;;;1.83;1.73;;;14.50;99.90;;;;;;5009341;28;20251;-83
2021/05/21 00:30:16;;;;;;;2.00;1.90;;;14.50;99.90;;;;;;5008891;28;20230;-82
2021/05/21 00:32:43;;;;;;;2.27;2.10;;;14.50;99.90;;;;;;5010086;28;20245;-84
2021/05/21 00:35:11;;;;;;;2.43;2.33;;;14.50;99.90;;;;;;5018801;28;20232;-78
2021/05/21 00:37:37;;;;;;;4.50;2.10;;;14.50;99.90;;;;;;5026532;28;20210;-78
2021/05/21 00:40:05;;;;;;;2.23;2.07;;;14.50;99.90;;;;;;5038275;28;20221;-79
2021/05/21 00:42:32;;;;;;;2.30;2.20;;;14.10;99.90;;;;;;5028847;28;20270;-80
2021/05/21 00:44:59;;;;;;;2.30;2.20;;;13.70;99.90;;;;;;5028641;28;20193;-80
2021/05/21 00:47:28;;;;;;;4.27;2.20;;;13.60;99.90;;;;;;5028507;28;20212;-80
2021/05/21 00:49:55;;;;;;;3.40;2.00;;;13.60;99.90;;;;;;5028398;28;20228;-81
2021/05/21 00:52:23;;;;;;;2.00;1.90;;;13.70;99.90;;;;;;5027816;28;20554;-80
2021/05/21 00:54:50;;;;;;;2.23;2.13;;;13.80;99.90;;;;;;5028064;28;20209;-80
2021/05/21 00:57:17;;;;;;;2.00;1.90;;;14.00;99.90;;;;;;5027892;28;20237;-80
2021/05/21 00:59:43;;;;;;;2.20;2.10;;;14.00;99.90;;;;;;5028322;28;20578;-80
2021/05/21 01:02:10;;;;;;;2.23;2.13;;;14.10;99.90;;;;;;5028018;28;20215;-81
2021/05/21 01:04:37;;;;;;;2.00;1.90;;;14.10;99.90;;;;;;5028053;28;20260;-80
2021/05/21 01:07:05;;;;;;;2.73;1.90;;;14.20;99.90;;;;;;5028719;28;20213;-81
2021/05/21 01:09:32;;;;;;;2.20;2.03;;;14.30;99.90;;;;;;5027781;28;20727;-80
2021/05/21 01:11:58;;;;;;;2.17;2.07;;;14.30;99.90;;;;;;5027893;28;20209;-80
2021/05/21 01:14:25;;;;;;;2.43;2.23;;;14.40;99.90;;;;;;5019824;28;20710;-81
2021/05/21 01:16:51;;;;;;;2.00;1.80;;;14.40;99.90;;;;;;5007725;28;20234;-80
2021/05/21 01:19:17;;;;;;;2.33;2.23;;;14.50;99.90;;;;;;5009137;28;20237;-83
2021/05/21 01:21:44;;;;;;;2.10;1.77;;;14.50;99.90;;;;;;5009667;28;20210;-82
2021/05/21 01:24:11;;;;;;;2.10;2.00;;;14.50;99.90;;;;;;5009200;28;20205;-83
2021/05/21 01:26:38;;;;;;;2.87;2.07;;;14.50;99.90;;;;;;5009361;28;20213;-86
2021/05/21 01:29:05;;;;;;;2.87;2.17;;;14.50;99.90;;;;;;5009391;28;20271;-83
2021/05/21 01:31:32;;;;;;;2.43;2.30;;;14.50;99.90;;;;;;5008416;28;20672;-82
2021/05/21 01:33:58;;;;;;;2.60;2.43;;;14.50;99.90;;;;;;5009158;28;20618;-82
2021/05/21 01:36:24;;;;;;;2.37;2.20;;;14.50;99.90;;;;;;5008360;28;20247;-83
2021/05/21 01:38:56;;;;;;;2.97;2.20;;;14.50;99.90;;;;;;5008881;28;20272;-82
2021/05/21 01:41:23;;;;;;;2.50;2.37;;;14.50;99.90;;;;;;5008829;28;20216;-83
2021/05/21 01:43:49;;;;;;;2.30;2.20;;;14.50;99.90;;;;;;5008437;28;20708;-83
2021/05/21 01:46:16;;;;;;;2.50;2.40;;;14.40;99.90;;;;;;5008838;28;20206;-83
2021/05/21 01:48:44;;;;;;;2.80;2.60;;;14.20;99.90;;;;;;5008811;28;20227;-82
2021/05/21 01:51:10;;;;;;;2.93;2.60;;;14.10;99.90;;;;;;5008622;28;20325;-82
2021/05/21 01:53:36;;;;;;;2.30;2.20;;;14.00;99.90;;;;;;5009015;28;20201;-83
2021/05/21 01:56:04;;;;;;;2.23;2.00;;;14.10;99.90;;;;;;5008854;28;20233;-83
2021/05/21 01:58:31;;;;;;;3.13;2.50;;;14.10;99.90;;;;;;5008684;28;20201;-83
2021/05/21 02:00:58;;;;;;;2.70;2.50;;;14.20;99.90;;;;;;5008772;28;20212;-82
2021/05/21 02:03:24;;;;;;;3.00;2.60;;;14.20;99.90;;;;;;5022678;28;20607;-78
2021/05/21 02:05:50;;;;;;;4.00;2.70;;;14.20;99.90;;;;;;4999637;28;20206;-79
2021/05/21 02:08:16;;;;;;;2.63;2.53;;;14.20;99.90;;;;;;4997587;28;20668;-79
2021/05/21 02:10:43;;;;;;;2.80;2.60;;;14.30;99.90;;;;;;5006281;28;20237;-78
2021/05/21 02:13:10;;;;;;;3.10;2.50;;;14.30;99.90;;;;;;5015251;28;20576;-84
2021/05/21 02:15:36;;;;;;;2.50;2.40;;;14.40;99.90;;;;;;5046423;28;20694;-81
2021/05/21 02:18:03;;;;;;;3.23;2.50;;;14.40;99.90;;;;;;5014174;28;20283;-81
2021/05/21 02:20:29;;;;;;;2.50;2.37;;;14.40;99.90;;;;;;4995413;28;20209;-80
2021/05/21 02:22:55;;;;;;;2.67;2.47;;;14.40;99.90;;;;;;5004893;28;20214;-81
2021/05/21 02:25:21;;;;;;;2.47;2.37;;;14.40;99.90;;;;;;5004677;28;20241;-81
2021/05/21 02:27:47;;;;;;;3.00;2.70;;;14.30;99.90;;;;;;5004693;28;20217;-81
2021/05/21 02:30:15;;;;;;;2.60;2.40;;;14.30;99.90;;;;;;5004457;28;20241;-81
2021/05/21 02:32:41;;;;;;;3.00;2.67;;;14.30;99.90;;;;;;5005525;28;20220;-81
2021/05/21 02:35:09;;;;;;;2.87;2.67;;;14.30;99.90;;;;;;5024233;28;20212;-81
2021/05/21 02:37:36;;;;;;;2.80;2.70;;;14.30;99.90;;;;;;5020883;28;20215;-81
2021/05/21 02:40:03;;;;;;;2.30;2.20;;;14.30;99.90;;;;;;5003874;28;20221;-81
2021/05/21 02:42:30;;;;;;;2.53;2.43;;;14.30;99.90;;;;;;5019747;28;20601;-79
2021/05/21 02:44:56;;;;;;;2.93;2.57;;;14.30;99.90;;;;;;5013036;28;20213;-79
2021/05/21 02:47:23;;;;;;;3.00;2.60;;;14.30;99.90;;;;;;5022702;28;20209;-80
2021/05/21 02:49:49;;;;;;;2.63;2.43;;;14.30;99.90;;;;;;5078634;28;20265;-79
2021/05/21 02:52:15;;;;;;;2.67;2.47;;;14.20;99.90;;;;;;5107719;28;20542;-80
2021/05/21 02:54:41;;;;;;;2.37;2.27;;;14.20;99.90;;;;;;5108113;28;20202;-79
2021/05/21 02:57:07;;;;;;;3.47;2.80;;;14.10;99.90;;;;;;5108134;28;20205;-80
2021/05/21 02:59:33;;;;;;;2.43;2.30;;;14.10;99.90;;;;;;5040072;28;20284;-79
2021/05/21 03:01:59;;;;;;;2.47;2.37;;;14.20;99.90;;;;;;4990174;28;20206;-80
2021/05/21 03:04:26;;;;;;;2.70;2.50;;;14.20;99.90;;;;;;4997244;28;20251;-79
2021/05/21 03:06:52;;;;;;;3.57;2.50;;;14.20;99.90;;;;;;5000276;28;20868;-80
2021/05/21 03:09:19;;;;;;;2.70;2.50;;;14.20;99.90;;;;;;4986534;28;20260;-80
2021/05/21 03:11:45;;;;;;;2.23;2.13;;;14.20;99.90;;;;;;5025220;28;20692;-80
2021/05/21 03:14:11;;;;;;;2.30;2.20;;;14.20;99.90;;;;;;5025065;28;20663;-81
2021/05/21 03:16:37;;;;;;;2.60;2.40;;;14.20;99.90;;;;;;5025447;28;20230;-80
2021/05/21 03:19:06;;;;;;;2.60;2.50;;;14.10;99.90;;;;;;5024960;28;20208;-79
2021/05/21 03:21:32;;;;;;;2.70;2.50;;;14.20;99.90;;;;;;5024463;28;20699;-81
2021/05/21 03:23:59;;;;;;;2.70;2.60;;;14.20;99.90;;;;;;5024949;28;20799;-81
2021/05/21 03:26:25;;;;;;;2.30;2.20;;;14.20;99.90;;;;;;5024691;28;20213;-82
2021/05/21 03:28:51;;;;;;;2.70;2.60;;;14.20;99.90;;;;;;5025333;28;20236;-82
2021/05/21 03:31:18;;;;;;;2.40;2.30;;;14.00;99.90;;;;;;5025582;28;20281;-82
2021/05/21 03:33:44;;;;;;;2.33;2.23;;;14.00;99.90;;;;;;5025490;28;20216;-82
2021/05/21 03:36:10;;;;;;;2.27;2.17;;;13.90;99.90;;;;;;5025687;28;20213;-82
2021/05/21 03:38:38;;;;;;;2.57;2.37;;;13.70;99.90;;;;;;5024950;28;20859;-82
2021/05/21 03:41:05;;;;;;;2.40;2.30;;;13.80;99.90;;;;;;5025908;28;20213;-82
2021/05/21 03:43:31;;;;;;;2.60;2.40;;;13.90;99.90;;;;;;5024737;28;20734;-82
2021/05/21 03:45:57;;;;;;;2.70;2.60;;;13.90;99.90;;;;;;5025541;28;20205;-82
2021/05/21 03:48:24;;;;;;;2.53;2.43;;;14.00;99.90;;;;;;5025140;28;20682;-82
2021/05/21 03:50:50;;;;;;;2.30;2.20;;;13.90;99.90;;;;;;5025546;28;20277;-82
2021/05/21 03:53:16;;;;;;;2.87;2.40;;;13.90;99.90;;;;;;5025285;28;20205;-82
2021/05/21 03:55:43;;;;;;;2.50;2.40;;;13.80;99.90;;;;;;5027356;28;20205;-82
2021/05/21 03:58:10;;;;;;;2.70;2.53;;;13.80;99.90;;;;;;5028662;28;20209;-82
2021/05/21 04:00:37;;;;;;;2.57;2.47;;;13.80;99.90;;;;;;5028724;28;20205;-82
2021/05/21 04:03:05;;;;;;;2.60;2.40;;;13.80;99.90;;;;;;5028642;28;20266;-82
2021/05/21 04:05:32;;;;;;;2.53;2.40;;;13.80;99.90;;;;;;5029124;28;20205;-82
2021/05/21 04:07:59;;;;;;;2.43;2.33;;;13.90;99.90;;;;;;5028363;27;20738;-82
2021/05/21 04:10:26;;;;;;;2.40;2.30;;;13.90;99.90;;;;;;5028103;28;20768;-81
2021/05/21 04:12:53;;;;;;;3.07;2.97;;;13.90;99.90;;;;;;5028530;28;20307;-82
2021/05/21 04:15:19;;;;;;;2.40;2.30;;;13.90;99.90;;;;;;5028365;28;20234;-82
2021/05/21 04:17:45;;;;;;;2.20;2.10;;;13.90;99.90;;;;;;5028857;28;20246;-80
2021/05/21 04:20:13;;;;;;;2.60;2.50;;;13.90;99.90;;;;;;5028236;28;20208;-81
2021/05/21 04:22:40;;;;;;;2.40;2.30;;;13.90;99.90;;;;;;5028286;28;20304;-81
2021/05/21 04:25:07;;;;;;;2.40;2.30;;;14.00;99.90;;;;;;5028597;28;20675;-81
2021/05/21 04:27:33;;;;;;;2.73;2.53;;;14.00;99.90;;;;;;5028336;28;20765;-81
2021/05/21 04:30:00;;;;;;;2.80;2.60;;;14.00;99.90;;;;;;5028228;28;20228;-81
2021/05/21 04:32:26;;;;;;;2.33;2.23;;;14.00;99.90;;;;;;5027841;28;20662;-80
2021/05/21 04:34:53;;;;;;;2.60;2.40;;;14.00;99.90;;;;;;5028380;28;20566;-81
2021/05/21 04:37:19;;;;;;;2.30;2.20;;;14.00;99.90;;;;;;5027664;28;20205;-81
2021/05/21 04:39:45;;;;;;;2.87;2.57;;;14.00;99.90;;;;;;5027899;27;20267;-81
2021/05/21 04:42:11;;;;;;;2.60;2.40;;;13.90;99.90;;;;;;5027968;28;20216;-81
2021/05/21 04:44:37;;;;;;;2.80;2.60;;;13.90;99.90;;;;;;5027682;28;20240;-81
2021/05/21 04:47:05;;;;;;;2.63;2.40;;;13.90;99.90;;;;;;5028100;28;20204;-81
2021/05/21 04:49:35;;;;;;;2.50;2.40;;;13.90;99.90;;;;;;5027571;28;20266;-81
2021/05/21 04:52:03;;;;;;;2.83;2.63;;;13.90;99.90;;;;;;5027695;28;20212;-81
2021/05/21 04:54:29;;;;;;;2.40;2.30;;;13.90;99.90;;;;;;5027958;28;20205;-82
2021/05/21 04:56:56;;;;;;;2.80;2.60;;;13.90;99.90;;;;;;5028011;28;20212;-82
2021/05/21 04:59:22;;;;;;;2.83;2.53;;;13.90;99.90;;;;;;5027978;28;20201;-82
2021/05/21 05:01:48;;;;;;;3.30;2.47;;;13.90;99.90;;;;;;5027826;28;20207;-83
2021/05/21 05:04:15;;;;;;;2.60;2.50;;;13.90;99.90;;;;;;5027569;28;20290;-80
2021/05/21 05:06:42;;;;;;;4.70;2.50;;;13.90;99.90;;;;;;5020170;28;20699;-81
2021/05/21 05:09:09;;;;;;;2.37;2.27;;;13.90;99.90;;;;;;5007805;28;20288;-82
2021/05/21 05:11:37;;;;;;;2.47;2.37;;;13.90;99.90;;;;;;5007761;28;20243;-81
2021/05/21 05:14:04;;;;;;;2.50;2.40;;;13.90;99.90;;;;;;5007575;28;20221;-81
2021/05/21 05:16:30;;;;;;;5.73;2.30;;;13.90;99.90;;;;;;5007860;28;20216;-82
2021/05/21 05:18:56;;;;;;;2.33;2.23;;;14.00;99.90;;;;;;5007500;28;20667;-81
2021/05/21 05:21:24;;;;;;;2.40;2.20;;;14.00;99.90;;;;;;5007481;28;20205;-82
2021/05/21 05:23:50;;;;;;;2.40;2.20;;;14.00;99.90;;;;;;5007588;28;20563;-82
2021/05/21 05:26:18;;;;;;;2.57;2.40;;;14.00;99.90;;;;;;5007970;28;20573;-82
2021/05/21 05:28:44;;;;;;;2.33;2.23;;;14.10;99.90;;;;;;5007965;28;20205;-83
2021/05/21 05:31:11;;;;;;;2.40;2.13;;;14.10;99.90;;;;;;5007790;28;20233;-81
2021/05/21 05:33:37;;;;;;;2.50;2.30;;;14.10;99.90;;;;;;5007304;28;20676;-80
2021/05/21 05:36:04;;;;;;;2.40;2.20;;;14.10;99.90;;;;;;5007656;28;20282;-81
2021/05/21 05:38:31;;;;;;;2.53;2.27;;;14.10;99.90;;;;;;5007206;28;20260;-81
2021/05/21 05:40:58;;;;;;;2.40;1.93;;;14.20;99.90;;;;;;5007557;28;20259;-81
2021/05/21 05:43:24;;;;;;;2.27;2.17;;;14.20;99.90;;;;;;5007146;28;20246;-82
2021/05/21 05:45:50;;;;;;;3.17;2.17;;;14.20;99.90;;;;;;5007384;28;20217;-82
2021/05/21 05:48:18;;;;;;;2.63;2.10;;;14.20;99.90;;;;;;5007598;28;20258;-82
2021/05/21 05:50:45;;;;;;;2.10;2.00;;;14.30;99.90;;;;;;5007615;28;20317;-82
2021/05/21 05:53:11;;;;;;;1.90;1.80;;;14.20;99.90;;;;;;5007314;28;20274;-82
2021/05/21 05:55:39;;;;;;;1.90;1.80;;;14.30;99.90;;;;;;5007111;28;20220;-81
2021/05/21 05:58:05;;;;;;;1.87;1.77;;;14.30;99.90;;;;;;5007025;28;20848;-81
2021/05/21 06:00:31;;;;;;;1.63;1.60;;;14.40;99.90;;;;;;5007337;28;20213;-81
2021/05/21 06:03:05;;;;;;;1.80;1.70;;;14.40;99.90;;;;;;5006425;28;20233;-81
2021/05/21 06:05:32;;;;;;;1.97;1.80;;;14.50;99.90;;;;;;5006777;28;20213;-81
2021/05/21 06:07:58;;;;;;;3.43;1.67;;;14.60;99.90;;;;;;5006790;28;20209;-81
2021/05/21 06:10:24;;;;;;;2.30;1.73;;;14.60;99.90;;;;;;5006895;28;20237;-81
2021/05/21 06:12:58;;;;;;;1.80;1.70;;;14.70;99.90;;;;;;5007021;28;20245;-81
2021/05/21 06:15:24;;;;;;;1.83;1.77;;;14.80;99.90;;;;;;5006135;28;20237;-81
2021/05/21 06:17:53;;;;;;;2.10;2.00;;;14.80;99.90;;;;;;5006777;28;20664;-81
2021/05/21 06:20:19;;;;;;;1.90;1.80;;;14.90;99.90;;;;;;5006558;28;20687;-82
2021/05/21 06:22:45;;;;;;;1.63;1.60;;;15.00;99.90;;;;;;5006476;28;20205;-82
2021/05/21 06:25:12;;;;;;;1.70;1.60;;;15.00;99.90;;;;;;5006535;28;20239;-83
2021/05/21 06:27:38;;;;;;;1.80;1.70;;;15.00;99.90;;;;;;5006589;28;20633;-83
2021/05/21 06:30:08;;;;;;;1.67;1.53;;;15.00;99.90;;;;;;5007050;28;20259;-82
2021/05/21 06:32:35;;;;;;;1.50;1.40;;;15.10;99.90;;;;;;5006072;28;20228;-81
2021/05/21 06:35:01;;;;;;;1.80;1.70;;;15.10;99.90;;;;;;5006784;28;20231;-81
2021/05/21 06:37:28;;;;;;;5.90;1.70;;;15.10;99.90;;;;;;5006134;28;20671;-81
2021/05/21 06:39:55;;;;;;;1.43;1.37;;;15.20;99.90;;;;;;5006485;28;20220;-81
2021/05/21 06:42:21;;;;;;;2.40;1.30;;;15.20;99.90;;;;;;5006644;28;20206;-81
2021/05/21 06:44:47;;;;;;;1.80;1.70;;;15.30;99.90;;;;;;5007370;28;20209;-81
2021/05/21 06:47:14;;;;;;;1.30;1.20;;;15.40;99.90;;;;;;5006222;28;20664;-81
2021/05/21 06:49:42;;;;;;;1.23;1.23;;;15.40;99.90;;;;;;5006052;28;20752;-81
2021/05/21 06:52:08;;;;;;;1.90;1.47;;;15.50;99.90;;;;;;5006171;28;20232;-81
2021/05/21 06:54:36;;;;;;;1.60;1.50;;;15.50;99.90;;;;;;5006080;28;20251;-81
2021/05/21 06:57:02;;;;;;;1.70;1.60;;;15.60;99.90;;;;;;5006162;28;20213;-81
2021/05/21 06:59:28;;;;;;;1.40;1.30;;;15.70;99.90;;;;;;5006077;28;20252;-81
2021/05/21 07:01:55;;;;;;;2.03;1.30;;;15.70;99.90;;;;;;5006291;28;20436;-82
2021/05/21 07:04:21;;;;;;;1.00;1.00;;;15.70;99.90;;;;;;5005787;28;20575;-81
2021/05/21 07:06:48;;;;;;;1.30;1.20;;;15.80;99.90;;;;;;5005558;28;20244;-80
2021/05/21 07:09:14;;;;;;;2.00;1.90;;;15.80;99.90;;;;;;5005745;28;20960;-81
2021/05/21 07:11:40;;;;;;;1.20;1.20;;;15.90;99.90;;;;;;5006179;28;20330;-81
2021/05/21 07:14:08;;;;;;;2.37;1.40;;;15.90;99.90;;;;;;5006212;28;20209;-80
2021/05/21 07:16:34;;;;;;;1.63;1.50;;;15.90;99.90;;;;;;5005680;28;20241;-81
2021/05/21 07:19:01;;;;;;;1.53;1.20;;;15.90;99.90;;;;;;5005774;28;20213;-81
2021/05/21 07:21:28;;;;;;;2.17;1.37;;;15.90;99.90;;;;;;5005788;28;20202;-81
2021/05/21 07:23:54;;;;;;;1.90;1.67;;;15.90;99.90;;;;;;5005748;28;20263;-82
2021/05/21 07:26:20;;;;;;;2.40;1.40;;;15.90;99.90;;;;;;5005638;28;20638;-80
2021/05/21 07:28:47;;;;;;;1.73;1.20;;;15.90;99.90;;;;;;5005476;28;20239;-81
2021/05/21 07:31:13;;;;;;;1.17;1.17;;;15.90;99.90;;;;;;5008752;28;20229;-80
2021/05/21 07:33:42;;;;;;;1.33;1.23;;;15.80;99.90;;;;;;5009005;28;20212;-81
2021/05/21 07:36:08;;;;;;;1.93;1.33;;;15.80;99.90;;;;;;5009279;28;20207;-81
2021/05/21 07:38:36;;;;;;;2.30;1.20;;;15.80;99.90;;;;;;5008912;28;20236;-81
2021/05/21 07:41:03;;;;;;;3.00;1.10;;;15.80;99.90;;;;;;5008918;28;20675;-81
2021/05/21 07:43:29;;;;;;;3.40;1.40;;;15.80;99.90;;;;;;5009002;28;20525;-81
2021/05/21 07:45:56;;;;;;;1.77;1.07;;;15.80;99.90;;;;;;5008945;28;20217;-81
2021/05/21 07:48:23;;;;;;;4.03;1.10;;;15.80;99.90;;;;;;5009181;28;20236;-80
2021/05/21 07:50:49;;;;;;;3.50;1.53;;;15.90;99.90;;;;;;5008755;28;20237;-80
2021/05/21 07:53:15;;;;;;;1.50;1.40;;;15.90;99.90;;;;;;5009110;28;20571;-80
2021/05/21 07:55:44;;;;;;;2.57;1.33;;;15.90;99.90;;;;;;5008647;28;20579;-80
2021/05/21 07:58:12;;;;;;;1.53;1.00;;;16.00;99.90;;;;;;5008913;28;20249;-81
2021/05/21 08:00:39;;;;;;;1.37;1.30;;;16.00;99.90;;;;;;5008730;28;20206;-81
2021/05/21 08:03:06;;;;;;;1.23;1.20;;;16.10;99.90;;;;;;5009074;28;20606;-80
2021/05/21 08:05:32;;;;;;;1.40;1.30;;;16.10;99.90;;;;;;5009109;28;20213;-81
2021/05/21 08:07:59;;;;;;;2.30;1.30;;;16.20;99.90;;;;;;5008697;28;20202;-81
2021/05/21 08:10:25;;;;;;;1.47;1.23;;;16.20;99.90;;;;;;5008482;28;20255;-81
2021/05/21 08:12:52;;;;;;;3.07;1.10;;;16.30;99.90;;;;;;5008791;28;20209;-80
2021/05/21 08:15:18;;;;;;;1.40;1.30;;;16.30;99.90;;;;;;5008944;28;20250;-80
2021/05/21 08:17:45;;;;;;;0.80;0.80;;;16.40;99.90;;;;;;5008624;28;20683;-80
2021/05/21 08:20:12;;;;;;;1.73;1.00;;;16.50;99.90;;;;;;5008413;28;20660;-80
2021/05/21 08:22:38;;;;;;;2.07;1.10;;;16.50;99.90;;;;;;5008353;28;20294;-80
2021/05/21 08:25:06;;;;;;;1.10;1.10;;;16.60;99.90;;;;;;5008571;28;20210;-80
2021/05/21 08:27:33;;;;;;;1.17;1.17;;;16.70;99.90;;;;;;5007785;28;20959;-80
2021/05/21 08:30:00;;;;;;;1.53;1.20;;;16.70;99.90;;;;;;5008221;28;20251;-81
2021/05/21 08:32:26;;;;;;;1.23;0.90;;;16.70;99.90;;;;;;5008218;28;20206;-80
2021/05/21 08:34:53;;;;;;;1.37;1.37;;;16.80;99.90;;;;;;5008302;28;20541;-80
2021/05/21 08:37:19;;;;;;;2.43;1.90;;;16.80;99.90;;;;;;5008151;28;20206;-80
2021/05/21 08:39:45;;;;;;;3.70;1.00;;;16.90;99.90;;;;;;5008159;28;20245;-80
2021/05/21 08:42:13;;;;;;;1.10;1.10;;;17.10;99.90;;;;;;5007217;28;20248;-80
2021/05/21 08:44:45;;;;;;;1.87;1.70;;;17.20;99.90;;;;;;5007757;28;20844;-80
2021/05/21 08:47:13;;;;;;;4.50;1.20;;;17.20;99.90;;;;;;5008396;28;20304;-79
2021/05/21 08:49:39;;;;;;;1.43;0.93;;;17.30;99.90;;;;;;5008132;28;20320;-80
2021/05/21 08:52:06;;;;;;;3.80;0.83;;;17.30;99.90;;;;;;5008219;28;20260;-80
2021/05/21 08:54:34;;;;;;;1.30;0.83;;;17.40;99.90;;;;;;5007884;28;20292;-80
2021/05/21 08:57:03;;;;;;;1.47;1.27;;;17.50;99.90;;;;;;5008001;28;20300;-80
2021/05/21 08:59:30;;;;;;;1.33;1.30;;;17.50;99.90;;;;;;5008075;28;20205;-80
2021/05/21 09:01:57;;;;;;;1.10;1.00;;;17.60;99.90;;;;;;5008099;28;20262;-79
2021/05/21 09:04:25;;;;;;;1.03;1.03;;;17.60;99.90;;;;;;5007804;28;20234;-79
2021/05/21 09:06:51;;;;;;;2.00;0.80;;;17.60;99.90;;;;;;5007885;28;20205;-81
2021/05/21 09:09:18;;;;;;;1.23;0.90;;;17.70;99.90;;;;;;5007563;28;20812;-80
2021/05/21 09:11:46;;;;;;;3.77;0.90;;;17.90;99.90;;;;;;5007675;28;20229;-80
2021/05/21 09:14:15;;;;;;;7.03;1.10;;;18.00;99.90;;;;;;5007549;28;20225;-80
2021/05/21 09:16:42;;;;;;;1.27;0.77;;;18.10;99.90;;;;;;5007929;28;20300;-79
2021/05/21 09:19:11;;;;;;;0.70;0.70;;;18.00;99.90;;;;;;5007725;28;20259;-80
2021/05/21 09:21:52;;;;;;;1.67;0.80;;;17.90;99.90;;;;;;5007727;28;20217;-81
2021/05/21 09:24:20;;;;;;;2.37;1.00;;;17.80;99.90;;;;;;5007293;28;20198;-81
2021/05/21 09:26:48;;;;;;;1.00;0.90;;;17.80;99.90;;;;;;5007583;28;20206;-81
2021/05/21 09:29:19;;;;;;;2.40;1.00;;;18.00;99.90;;;;;;5007449;28;20205;-80
2021/05/21 09:31:46;;;;;;;1.10;1.00;;;18.10;99.90;;;;;;5007623;28;20588;-80
2021/05/21 09:34:13;;;;;;;1.30;0.90;;;18.10;99.90;;;;;;5006168;28;20205;-80
2021/05/21 09:36:41;;;;;;;4.33;0.90;;;18.10;99.90;;;;;;5004044;28;20209;-81
2021/05/21 09:39:11;;;;;;;1.10;0.67;;;18.10;99.90;;;;;;5005784;28;20229;-81
2021/05/21 09:41:47;;;;;;;1.97;0.90;;;18.00;99.60;;;;;;5007358;28;20197;-80
2021/05/21 09:44:13;;;;;;;2.47;0.60;;;17.90;98.30;;;;;;5007083;28;20241;-81
2021/05/21 09:46:40;;;;;;;6.97;0.87;;;18.10;98.60;;;;;;5006833;28;20221;-88
2021/05/21 09:49:24;;;;;;;5.00;0.90;;;18.30;98.80;;;;;;5007291;28;20286;-80
2021/05/21 09:51:51;;;;;;;1.90;0.90;;;18.50;97.40;;;;;;5007378;28;20614;-80
2021/05/21 09:54:18;;;;;;;2.73;0.70;;;18.70;96.40;;;;;;5006859;28;20201;-81
2021/05/21 09:56:59;;;;;;;1.70;0.60;;;18.90;96.30;;;;;;5007106;28;20260;-80
2021/05/21 09:59:38;;;;;;;1.37;0.53;;;18.90;96.40;;;;;;5007157;28;20229;-80
2021/05/21 10:02:18;;;;;;;2.90;0.60;;;19.10;96.20;;;;;;5007102;28;20197;-80
2021/05/21 10:04:45;;;;;;;1.20;0.70;;;19.00;95.80;;;;;;5006595;28;20198;-80
2021/05/21 10:07:11;;;;;;;2.47;0.83;;;18.80;95.70;;;;;;5007071;28;20213;-80
2021/05/21 10:09:39;;;;;;;1.73;0.90;;;18.80;95.10;;;;;;5006677;28;20220;-80
2021/05/21 10:12:06;;;;;;;1.07;0.57;;;18.60;94.20;;;;;;5006911;28;20248;-80
2021/05/21 10:14:33;;;;;;;1.50;0.80;;;18.50;95.30;;;;;;5006922;28;20209;-80
2021/05/21 10:17:01;;;;;;;7.30;0.90;;;18.60;95.80;;;;;;5006834;28;20214;-80
2021/05/21 10:19:28;;;;;;;3.30;0.80;;;18.60;94.00;;;;;;5006442;28;20664;-80
2021/05/21 10:21:54;;;;;;;2.10;0.70;;;18.80;93.70;;;;;;5006413;28;20758;-79
2021/05/21 10:24:23;;;;;;;2.37;0.70;;;18.50;92.60;;;;;;5006445;28;20679;-79
2021/05/21 10:26:54;;;;;;;0.97;0.70;;;18.40;92.40;;;;;;5006267;28;20263;-79
2021/05/21 10:29:23;;;;;;;10.93;1.23;;;18.50;92.90;;;;;;5006536;28;20198;-80
2021/05/21 10:31:51;;;;;;;2.43;1.00;;;18.60;92.80;;;;;;5006461;28;20229;-80
2021/05/21 10:34:20;;;;;;;1.70;0.80;;;18.70;93.60;;;;;;5006800;28;20723;-79
2021/05/21 10:36:47;;;;;;;0.73;0.73;;;18.90;93.10;;;;;;5005940;28;20629;-80
2021/05/21 10:39:16;;;;;;;1.37;0.47;;;18.90;93.00;;;;;;5006338;28;20278;-79
2021/05/21 10:41:51;;;;;;;3.00;0.97;;;18.70;93.10;;;;;;5006223;28;20209;-79
2021/05/21 10:44:19;;;;;;;0.67;0.63;;;18.50;93.60;;;;;;5005979;28;20638;-80
2021/05/21 10:46:47;;;;;;;3.23;0.70;;;18.70;94.60;;;;;;5006190;28;20343;-79
2021/05/21 10:49:22;;;;;;;1.10;0.57;;;18.90;94.20;;;;;;5006425;28;20209;-80
2021/05/21 10:51:50;;;;;;;1.73;0.73;;;19.20;94.10;;;;;;5006018;28;20325;-80
2021/05/21 10:54:28;;;;;;;1.93;0.90;;;19.50;94.40;;;;;;5006100;28;20248;-79
2021/05/21 10:57:08;;;;;;;2.10;0.57;;;19.70;93.50;;;;;;5006059;28;20356;-79
2021/05/21 10:59:41;;;;;;;2.90;0.83;;;19.90;93.80;;;;;;5006381;28;20231;-79
2021/05/21 11:02:08;;;;;;;0.67;0.67;;;19.80;94.40;;;;;;5006327;28;20251;-80
2021/05/21 11:04:34;;;;;;;0.50;0.50;;;19.90;94.50;;;;;;5005109;28;20750;-78
2021/05/21 11:07:03;;;;;;;6.70;0.80;;;19.80;93.10;;;;;;5005896;28;20210;-79
2021/05/21 11:09:31;;;;;;;5.60;0.60;;;20.00;92.40;;;;;;5006069;28;20241;-80
2021/05/21 11:12:03;;;;;;;1.73;0.80;;;19.90;91.80;;;;;;5005539;28;20241;-79
2021/05/21 11:14:32;;;;;;;0.70;0.67;;;19.80;91.70;;;;;;5006081;28;20579;-79
2021/05/21 11:17:00;;;;;;;1.03;0.73;;;19.70;92.60;;;;;;5005746;28;20217;-79
2021/05/21 11:19:28;;;;;;;1.30;0.33;;;19.40;92.40;;;;;;5005987;28;20217;-79
2021/05/21 11:22:06;;;;;;;1.63;0.80;;;19.30;92.40;;;;;;5006096;28;20286;-79
2021/05/21 11:24:39;;;;;;;0.77;0.77;;;19.20;93.10;;;;;;5005972;28;20198;-78
2021/05/21 11:27:08;;;;;;;0.80;0.73;;;19.30;93.10;;;;;;5006022;28;20209;-79
2021/05/21 11:29:35;;;;;;;2.33;0.90;;;19.50;93.00;;;;;;5006059;28;20266;-78
2021/05/21 11:32:02;;;;;;;1.53;0.70;;;19.70;92.60;;;;;;5005330;28;20722;-78
2021/05/21 11:34:28;;;;;;;1.93;0.60;;;19.70;91.80;;;;;;5005987;28;20213;-78
2021/05/21 11:36:56;;;;;;;1.83;0.60;;;20.00;91.90;;;;;;5005470;28;20672;-78
2021/05/21 11:39:25;;;;;;;4.63;0.80;;;20.40;92.20;;;;;;5005636;28;20209;-78
2021/05/21 11:41:51;;;;;;;1.50;0.90;;;20.70;91.70;;;;;;5005285;28;20815;-78
2021/05/21 11:44:18;;;;;;;1.27;0.40;;;20.80;90.10;;;;;;5005355;28;20264;-78
2021/05/21 11:46:46;;;;;;;1.00;0.67;;;21.00;89.20;;;;;;5005508;28;20243;-78
2021/05/21 11:49:18;;;;;;;4.23;0.70;;;21.20;88.50;;;;;;5005543;28;20223;-78
2021/05/21 11:51:45;;;;;;;0.63;0.63;;;21.10;86.30;;;;;;5005518;28;20221;-78
2021/05/21 11:54:11;;;;;;;3.37;0.73;;;21.00;87.70;;;;;;5005657;28;20237;-78
2021/05/21 11:56:39;;;;;;;1.33;0.60;;;20.70;87.40;;;;;;5005135;28;20256;-78
2021/05/21 11:59:07;;;;;;;0.83;0.63;;;20.60;89.40;;;;;;5005607;28;20220;-78
2021/05/21 12:01:36;;;;;;;1.80;1.07;;;20.40;89.70;;;;;;5005656;28;20210;-78
2021/05/21 12:04:04;;;;;;;1.43;0.63;;;20.50;88.80;;;;;;5005435;28;20272;-77
2021/05/21 12:06:30;;;;;;;0.50;0.50;;;20.70;88.10;;;;;;5005290;28;20259;-77
2021/05/21 12:08:57;;;;;;;2.83;0.67;;;20.80;87.60;;;;;;5005498;28;20209;-78
2021/05/21 12:11:25;;;;;;;1.37;0.77;;;21.20;88.80;;;;;;5005157;28;20290;-78
2021/05/21 12:13:52;;;;;;;5.33;0.77;;;21.60;87.50;;;;;;5005181;28;20275;-77
2021/05/21 12:16:19;;;;;;;2.53;0.70;;;21.30;83.50;;;;;;5006717;28;20215;-78
2021/05/21 12:18:47;;;;;;;1.27;0.70;;;21.10;85.80;;;;;;5008381;28;20224;-78
2021/05/21 12:21:20;;;;;;;3.83;1.03;;;21.40;84.80;;;;;;5008528;28;20245;-78
2021/05/21 12:23:50;;;;;;;4.33;0.63;;;21.30;86.10;;;;;;5007936;28;20258;-78
2021/05/21 12:26:19;;;;;;;4.57;1.37;;;21.20;84.00;;;;;;5008259;28;20276;-78
2021/05/21 12:28:45;;;;;;;1.53;0.63;;;21.10;84.80;;;;;;5008482;28;20240;-78
2021/05/21 12:31:12;;;;;;;3.00;0.73;;;21.20;85.90;;;;;;5008297;28;20252;-78
2021/05/21 12:33:40;;;;;;;6.03;0.60;;;21.30;85.50;;;;;;5008456;28;20210;-78
2021/05/21 12:36:12;;;;;;;0.63;0.63;;;21.40;84.90;;;;;;5008498;28;20245;-77
2021/05/21 12:38:38;;;;;;;1.90;0.80;;;21.40;84.10;;;;;;5025816;28;20253;-79
2021/05/21 12:41:05;;;;;;;3.80;0.83;;;21.50;85.80;;;;;;5007740;28;20206;-78
2021/05/21 12:43:32;;;;;;;5.10;0.70;;;21.40;85.40;;;;;;5015570;28;20236;-79
2021/05/21 12:46:04;;;;;;;3.60;0.80;;;21.20;86.30;;;;;;5005365;28;20235;-78
2021/05/21 12:48:39;;;;;;;0.50;0.40;;;21.30;87.20;;;;;;5011259;28;20213;-79